Nebraska City Muni Information

FAA: AFK - ICAO: KAFK

Nebraska City Muni (Airport) Location

State Nebraska
County Otoe
City Nebraska City
Nebraska City Muni (Airport) is 4 miles south of Nebraska City, NE.
Latitude 40-36-23.5000N
Longitude 095-52-00.0000W
Elevation 1,165ft

Nebraska City Muni METARs

METAR KAFK 260955Z AUTO 02012KT 2 1/2SM BR OVC004 11/10 A2975 RMK AO2 P0002 T01050101
Altimeter 29.75"
Temperature 10.5°C (50.9°F)
Wind 20° at 12KT
Clouds overcast at 400ft
Visibility 2.5mi
Time observed: 2022-05-26T09:55:00Z

Nebraska City Muni (Airport) Details

Status Operational
Activation N/A
Ownership Public
Usage Public
Chart OMAHA
ATC on-site No
Beacon schedule sunset-sunrise
Beacon color clear green

Nebraska City Muni (Airport) Contacts

Owner CITY OF NEBRASKA CITY
Owner address 1409 CENTRAL AVE, NEBRASKA CITY, NE 68410-2223
Owner phone (402) 873-5515
Manager MIKE KING
Manager address 635 O STREET, LOUP CITY, NE 68853
Manager phone 308-745-1244

Nebraska City Muni Radio Frequencies

Nebraska City Muni (Airport) Radio Frequencies

UNICOM 122.7
Common traffic advisory frequency (CTAF) 122.7